Time;durP1;ratioP1;P1;durP2;ratioP2;P2;SDS_P1;SDS_P2;PMS_P1;PMS_P2;Temp;Humidity;BMP_temperature;BMP_pressure;BME280_temperature;BME280_humidity;BME280_pressure;Samples;Min_cycle;Max_cycle;Signal;HPM_P1;HPM_P2
2023/10/25 00:01:41;;;;;;;36.10;17.60;;;;;;;21.20;56.45;97287.58;67930;1273;1016386;-67
2023/10/25 00:04:43;;;;;;;28.30;12.00;;;;;;;21.33;56.19;97287.21;67906;1273;1016243;-67
2023/10/25 00:07:46;;;;;;;25.00;10.50;;;;;;;21.20;56.56;97284.95;67892;1273;1016470;-67
2023/10/25 00:10:48;;;;;;;29.40;10.70;;;;;;;21.14;56.74;97279.27;67902;1273;1017202;-66
2023/10/25 00:13:51;;;;;;;25.70;10.10;;;;;;;21.29;56.27;97274.86;67895;1273;1016844;-67
2023/10/25 00:16:53;;;;;;;31.80;11.60;;;;;;;21.23;56.43;97270.98;67890;1273;1016180;-67
2023/10/25 00:19:55;;;;;;;28.40;10.70;;;;;;;21.22;56.62;97261.09;67879;1273;1018188;-68
2023/10/25 00:22:58;;;;;;;31.20;10.60;;;;;;;21.12;56.92;97256.59;67872;1273;1017951;-67
2023/10/25 00:26:01;;;;;;;35.30;15.40;;;;;;;21.23;56.62;97250.66;67915;1273;1016267;-65
2023/10/25 00:29:03;;;;;;;27.90;8.80;;;;;;;21.31;56.34;97245.52;67884;1273;1016377;-68
2023/10/25 00:32:06;;;;;;;28.80;9.60;;;;;;;21.23;56.47;97240.30;67858;1273;1016917;-68
2023/10/25 00:35:08;;;;;;;27.00;9.40;;;;;;;21.22;56.66;97227.46;67906;1273;1016081;-68
2023/10/25 00:38:10;;;;;;;29.60;9.80;;;;;;;21.18;56.71;97219.63;67901;1273;1018889;-67
2023/10/25 00:41:13;;;;;;;32.20;9.70;;;;;;;21.18;56.91;97219.98;67918;1250;1016457;-65
2023/10/25 00:44:15;;;;;;;25.30;8.30;;;;;;;21.15;56.89;97213.27;67873;1273;1016295;-67
2023/10/25 00:47:18;;;;;;;32.90;10.50;;;;;;;21.14;57.05;97213.45;67887;1273;1016379;-68
2023/10/25 00:50:20;;;;;;;29.00;9.10;;;;;;;21.28;56.81;97205.48;67894;1273;1016405;-68
2023/10/25 00:53:22;;;;;;;27.80;8.30;;;;;;;21.26;56.82;97204.21;67932;1273;1016244;-68
2023/10/25 00:56:25;;;;;;;28.60;8.60;;;;;;;21.27;56.91;97197.33;67908;1273;1017967;-67
2023/10/25 00:59:27;;;;;;;28.50;8.90;;;;;;;21.28;57.02;97196.87;67853;1273;1018134;-67
2023/10/25 01:02:30;;;;;;;28.20;8.50;;;;;;;21.32;56.89;97186.91;67892;1273;1016413;-65
2023/10/25 01:05:32;;;;;;;30.40;8.10;;;;;;;21.35;56.82;97181.25;67924;1273;1016745;-68
2023/10/25 01:08:34;;;;;;;29.30;8.80;;;;;;;21.37;56.85;97172.73;67916;1273;1016449;-68
2023/10/25 01:11:37;;;;;;;29.00;7.80;;;;;;;21.22;57.38;97164.14;67926;1273;1016396;-67
2023/10/25 01:14:39;;;;;;;28.00;8.00;;;;;;;21.29;57.21;97162.70;67868;1273;1016681;-67
2023/10/25 01:17:42;;;;;;;;;;;;;;;21.34;57.07;97153.85;67638;1273;1016649;-68
2023/10/25 01:20:44;;;;;;;26.60;7.70;;;;;;;21.29;57.33;97149.05;67894;1273;1016218;-68
2023/10/25 01:23:47;;;;;;;28.10;7.90;;;;;;;21.34;57.16;97143.42;67932;1273;1016340;-68
2023/10/25 01:26:49;;;;;;;22.40;6.80;;;;;;;21.39;57.25;97142.01;67921;1273;1016508;-68
2023/10/25 01:29:51;;;;;;;26.10;7.30;;;;;;;21.41;57.10;97133.71;67890;1273;1016332;-68
2023/10/25 01:32:54;;;;;;;26.00;7.60;;;;;;;21.34;57.50;97132.19;67898;1273;1016528;-68
2023/10/25 01:35:56;;;;;;;;;;;;;;;21.34;57.47;97128.83;67931;1273;1016669;-68
2023/10/25 01:38:59;;;;;;;26.40;7.90;;;;;;;21.43;57.24;97127.98;67904;1273;1016900;-68
2023/10/25 01:42:01;;;;;;;25.40;6.90;;;;;;;21.42;57.26;97120.88;67904;1273;1015956;-68
2023/10/25 01:45:03;;;;;;;24.30;6.60;;;;;;;21.40;57.39;97117.70;67918;1273;1016216;-68
2023/10/25 01:48:06;;;;;;;24.20;7.20;;;;;;;21.33;57.56;97116.84;67872;1273;1016350;-68
2023/10/25 01:51:09;;;;;;;21.40;6.40;;;;;;;21.36;57.59;97112.21;67921;1273;1017451;-68
2023/10/25 01:54:12;;;;;;;24.40;6.60;;;;;;;21.48;57.26;97106.20;67880;1273;1016270;-69
2023/10/25 01:57:15;;;;;;;27.70;8.50;;;;;;;21.55;57.06;97105.81;67916;1273;1016350;-68
2023/10/25 02:00:18;;;;;;;32.60;12.10;;;;;;;21.55;57.01;97104.00;67904;1273;1016438;-67
2023/10/25 02:03:20;;;;;;;21.80;7.40;;;;;;;21.53;57.11;97098.42;67879;1273;1015969;-67
2023/10/25 02:06:22;;;;;;;30.70;8.90;;;;;;;21.59;57.00;97098.23;67924;1273;1016734;-68
2023/10/25 02:09:25;;;;;;;25.20;7.30;;;;;;;21.71;56.77;97099.44;67928;1273;1016417;-68
2023/10/25 02:12:27;;;;;;;23.00;6.60;;;;;;;21.72;56.72;97094.48;67924;1273;1016195;-68
2023/10/25 02:15:30;;;;;;;23.60;6.40;;;;;;;21.71;56.83;97097.64;67869;1273;1016460;-68
2023/10/25 02:18:32;;;;;;;21.40;5.60;;;;;;;21.73;56.86;97094.73;67834;1273;1015763;-68
2023/10/25 02:21:35;;;;;;;21.50;6.00;;;;;;;21.73;56.86;97093.44;67878;1273;1016360;-68
2023/10/25 02:24:38;;;;;;;22.60;6.10;;;;;;;21.71;56.92;97092.55;67854;1273;1016204;-68
2023/10/25 02:27:40;;;;;;;21.80;4.90;;;;;;;21.73;56.88;97090.20;67858;1273;1016404;-68
2023/10/25 02:30:43;;;;;;;;;;;;;;;21.69;56.92;97088.16;67908;1273;1016327;-68
2023/10/25 02:33:45;;;;;;;16.90;5.10;;;;;;;21.68;57.06;97091.08;67892;1273;1016317;-68
2023/10/25 02:36:47;;;;;;;20.80;5.50;;;;;;;21.52;57.49;97087.21;67941;1273;1016735;-68
2023/10/25 02:39:50;;;;;;;18.30;4.40;;;;;;;21.57;57.34;97087.35;67865;1273;1016396;-68
2023/10/25 02:42:52;;;;;;;18.80;4.90;;;;;;;21.51;57.61;97086.23;67850;1273;1017666;-68
2023/10/25 02:45:55;;;;;;;20.30;5.20;;;;;;;21.56;57.48;97081.80;67895;1273;1017539;-68
2023/10/25 02:48:57;;;;;;;21.60;5.30;;;;;;;21.57;57.27;97079.55;67893;1273;1016023;-67
2023/10/25 02:51:59;;;;;;;16.60;4.30;;;;;;;21.51;57.49;97075.61;67921;1273;1016498;-68
2023/10/25 02:55:02;;;;;;;18.00;5.10;;;;;;;21.51;57.75;97075.77;67905;1273;1015842;-68
2023/10/25 02:58:05;;;;;;;18.50;5.30;;;;;;;21.52;57.84;97074.58;67855;1273;1016325;-68
2023/10/25 03:01:07;;;;;;;18.20;5.50;;;;;;;21.51;57.81;97072.52;67897;1273;1016547;-68
2023/10/25 03:04:09;;;;;;;31.90;11.30;;;;;;;21.54;57.74;97067.95;67908;1273;1016342;-68
2023/10/25 03:07:12;;;;;;;24.30;8.10;;;;;;;21.55;57.91;97070.23;67914;1273;1016476;-68
2023/10/25 03:10:14;;;;;;;24.50;7.70;;;;;;;21.60;57.82;97068.03;67885;1273;1016323;-68
2023/10/25 03:13:16;;;;;;;22.00;6.60;;;;;;;21.69;57.58;97069.45;67878;1273;1016057;-66
2023/10/25 03:16:19;;;;;;;16.00;4.40;;;;;;;21.80;57.26;97066.92;67847;1273;1018431;-68
2023/10/25 03:19:21;;;;;;;17.30;4.30;;;;;;;21.87;57.31;97066.01;67886;1273;1016474;-68
2023/10/25 03:22:24;;;;;;;17.80;4.10;;;;;;;21.86;57.19;97067.64;67882;1273;1016720;-68
2023/10/25 03:25:26;;;;;;;20.10;4.60;;;;;;;21.81;57.28;97067.09;67876;1273;1016168;-67
2023/10/25 03:28:29;;;;;;;;;;;;;;;21.78;57.17;97070.09;67877;1273;1016319;-68
2023/10/25 03:31:31;;;;;;;22.90;5.10;;;;;;;21.46;57.85;97070.18;67895;1273;1018451;-68
2023/10/25 03:34:33;;;;;;;18.60;4.20;;;;;;;21.35;58.48;97071.65;67887;1273;1016478;-68
2023/10/25 03:37:39;;;;;;;22.30;4.80;;;;;;;21.22;58.71;97073.05;67906;1273;1016194;-68
2023/10/25 03:40:41;;;;;;;19.80;4.60;;;;;;;21.22;58.48;97068.45;67861;1273;1019654;-67
2023/10/25 03:43:44;;;;;;;;;;;;;;;21.33;58.38;97059.86;67921;1273;1017293;-68
2023/10/25 03:46:47;;;;;;;26.60;8.30;;;;;;;21.47;58.03;97058.29;67938;1273;1016213;-68
2023/10/25 03:49:49;;;;;;;21.90;5.20;;;;;;;21.47;58.38;97059.35;67900;1273;1016326;-68
2023/10/25 03:52:52;;;;;;;21.70;4.60;;;;;;;21.36;58.70;97061.97;67860;1273;1015959;-66
2023/10/25 03:55:55;;;;;;;20.80;5.20;;;;;;;21.35;58.53;97061.48;67905;1273;1017827;-68
2023/10/25 03:58:57;;;;;;;20.70;4.90;;;;;;;21.42;58.51;97056.17;67882;1273;1016394;-67
2023/10/25 04:02:00;;;;;;;28.60;8.90;;;;;;;21.66;57.96;97050.86;67859;1273;1016403;-68
2023/10/25 04:05:02;;;;;;;24.80;6.90;;;;;;;21.70;57.91;97045.84;67834;1273;1019663;-68
2023/10/25 04:08:04;;;;;;;20.40;5.00;;;;;;;21.55;58.19;97045.57;67903;1273;1016401;-68
2023/10/25 04:11:08;;;;;;;21.60;5.30;;;;;;;21.47;58.28;97039.60;67944;1273;1016513;-68
2023/10/25 04:14:11;;;;;;;18.30;4.90;;;;;;;21.46;58.36;97038.46;67921;1273;1016539;-67
2023/10/25 04:17:13;;;;;;;20.50;5.80;;;;;;;21.71;57.92;97034.71;67923;1273;1016308;-67
2023/10/25 04:20:15;;;;;;;24.20;6.10;;;;;;;21.64;58.03;97031.35;67905;1251;1016570;-67
2023/10/25 04:23:18;;;;;;;20.40;5.60;;;;;;;21.67;58.01;97029.76;67870;1273;1016448;-68
2023/10/25 04:26:20;;;;;;;24.30;5.30;;;;;;;21.65;57.96;97027.02;67869;1273;1016357;-62
2023/10/25 04:29:22;;;;;;;28.00;6.00;;;;;;;21.65;58.00;97029.60;67887;1273;1016480;-67
2023/10/25 04:32:25;;;;;;;23.90;6.20;;;;;;;21.66;57.84;97033.57;67903;1273;1016435;-68
2023/10/25 04:35:27;;;;;;;21.90;6.00;;;;;;;21.66;57.88;97030.38;67940;1273;1018950;-65
2023/10/25 04:38:30;;;;;;;20.60;6.40;;;;;;;21.49;58.58;97039.58;67828;1273;1017463;-67
2023/10/25 04:41:32;;;;;;;24.90;6.80;;;;;;;21.27;58.95;97036.48;67874;1273;1017892;-68
2023/10/25 04:44:34;;;;;;;24.80;7.40;;;;;;;21.20;59.11;97041.42;67910;1273;1017031;-68
2023/10/25 04:47:37;;;;;;;21.80;7.10;;;;;;;21.05;59.47;97044.33;67918;1273;1016721;-68
2023/10/25 04:50:39;;;;;;;26.90;7.80;;;;;;;20.98;59.63;97037.96;67912;1273;1016530;-68
2023/10/25 04:53:41;;;;;;;24.80;8.00;;;;;;;21.03;59.46;97042.15;67890;1273;1016510;-67
2023/10/25 04:56:44;;;;;;;22.40;7.80;;;;;;;21.02;59.56;97045.05;67841;1273;1016257;-64
2023/10/25 04:59:47;;;;;;;26.40;9.00;;;;;;;20.95;59.84;97048.77;67905;1273;1016735;-64
2023/10/25 05:02:49;;;;;;;26.30;9.80;;;;;;;20.94;59.90;97041.48;67907;1273;1016359;-67
2023/10/25 05:05:54;;;;;;;24.10;9.20;;;;;;;21.00;59.49;97043.33;67887;1257;1016529;-67
2023/10/25 05:08:56;;;;;;;26.00;9.20;;;;;;;21.03;59.41;97042.96;67927;1273;1017468;-67
2023/10/25 05:11:59;;;;;;;26.20;9.50;;;;;;;20.98;59.40;97048.45;67931;1273;1016445;-67
2023/10/25 05:15:02;;;;;;;26.20;9.20;;;;;;;20.81;59.83;97050.73;67934;1273;1016320;-67
2023/10/25 05:18:05;;;;;;;26.80;9.80;;;;;;;20.75;59.77;97051.77;67866;1273;1016307;-66
2023/10/25 05:21:07;;;;;;;;;;;;;;;20.72;59.67;97053.20;67934;1273;1016422;-67
2023/10/25 05:24:09;;;;;;;27.10;11.20;;;;;;;20.72;59.64;97051.18;67913;1273;1016221;-66
2023/10/25 05:27:12;;;;;;;28.00;11.70;;;;;;;20.76;59.43;97056.50;67868;1273;1016352;-68
2023/10/25 05:30:15;;;;;;;27.00;11.40;;;;;;;20.76;59.30;97060.22;67882;1273;1016102;-68
2023/10/25 05:33:17;;;;;;;27.00;11.50;;;;;;;20.82;59.18;97067.61;67896;1273;1016271;-64
2023/10/25 05:36:20;;;;;;;31.70;12.00;;;;;;;20.89;58.90;97073.29;67874;1273;1016339;-67
2023/10/25 05:39:22;;;;;;;28.30;12.40;;;;;;;20.95;58.72;97080.67;67871;1273;1016322;-68
2023/10/25 05:42:25;;;;;;;28.80;12.20;;;;;;;20.79;59.15;97078.42;67862;1273;1016244;-67
2023/10/25 05:45:27;;;;;;;28.90;11.80;;;;;;;20.97;58.81;97080.02;67922;1273;1018339;-68
2023/10/25 05:48:29;;;;;;;27.50;11.70;;;;;;;20.78;59.71;97076.90;67911;1273;1016454;-68
2023/10/25 05:51:32;;;;;;;28.00;12.20;;;;;;;20.81;59.53;97085.00;67861;1273;1016320;-68
2023/10/25 05:54:34;;;;;;;29.90;13.10;;;;;;;20.81;59.47;97089.95;67911;1273;1018240;-68
2023/10/25 05:57:37;;;;;;;28.20;13.60;;;;;;;20.78;59.72;97089.04;67867;1273;1016417;-68
2023/10/25 06:00:39;;;;;;;29.30;13.20;;;;;;;20.82;59.64;97093.97;67952;1273;1017103;-68
2023/10/25 06:03:42;;;;;;;31.10;13.80;;;;;;;20.85;59.53;97094.27;67912;1273;1016506;-68
2023/10/25 06:06:44;;;;;;;28.40;13.10;;;;;;;20.81;59.59;97100.11;67892;1273;1016544;-68
2023/10/25 06:09:47;;;;;;;31.00;13.20;;;;;;;20.81;59.76;97104.78;67909;1273;1016825;-68
2023/10/25 06:12:49;;;;;;;28.10;13.30;;;;;;;20.88;59.44;97108.77;67939;1273;1018454;-68
2023/10/25 06:15:51;;;;;;;28.70;12.70;;;;;;;20.82;59.40;97114.38;67950;1273;1016274;-68
2023/10/25 06:18:54;;;;;;;30.70;14.40;;;;;;;20.75;59.67;97110.96;67948;1273;1018568;-67
2023/10/25 06:21:56;;;;;;;28.00;12.90;;;;;;;20.66;59.93;97118.80;67885;1273;1016301;-68
2023/10/25 06:24:59;;;;;;;;;;;;;;;20.43;60.69;97122.92;67899;1273;1016143;-68
2023/10/25 06:28:01;;;;;;;28.10;12.40;;;;;;;20.28;61.22;97125.81;67929;1273;1018975;-66
2023/10/25 06:31:05;;;;;;;29.90;13.50;;;;;;;20.42;60.82;97123.75;67925;1273;1016208;-66
2023/10/25 06:34:07;;;;;;;30.70;13.70;;;;;;;20.42;60.51;97127.44;67909;1273;1016176;-67
2023/10/25 06:37:10;;;;;;;27.40;12.80;;;;;;;20.26;61.06;97131.08;67920;1273;1016097;-68
2023/10/25 06:40:12;;;;;;;29.50;12.70;;;;;;;20.08;61.37;97136.05;67907;1273;1015988;-67
2023/10/25 06:43:14;;;;;;;30.50;13.00;;;;;;;20.08;61.01;97129.98;67874;1273;1015782;-68
2023/10/25 06:46:17;;;;;;;28.20;12.70;;;;;;;20.13;60.84;97135.02;67857;1273;1016467;-67
2023/10/25 06:49:19;;;;;;;24.80;10.50;;;;;;;19.99;61.05;97131.15;67905;1273;1016341;-68
2023/10/25 06:52:22;;;;;;;21.90;7.90;;;;;;;19.98;60.68;97131.36;67953;1273;1016221;-67
2023/10/25 06:55:24;;;;;;;21.90;7.00;;;;;;;19.91;60.46;97139.92;67885;1273;1016437;-65
2023/10/25 06:58:27;;;;;;;19.80;6.90;;;;;;;19.76;60.95;97143.36;67862;1273;1016482;-66
2023/10/25 07:01:29;;;;;;;;;;;;;;;19.86;60.74;97140.86;67889;1273;1016329;-67
2023/10/25 07:04:32;;;;;;;;;;;;;;;19.86;60.69;97143.80;67924;1273;1016585;-66
2023/10/25 07:07:35;;;;;;;21.10;6.10;;;;;;;19.93;60.39;97135.46;67872;1273;1015789;-66
2023/10/25 07:10:37;;;;;;;24.40;6.70;;;;;;;19.84;60.80;97144.73;67877;1273;1016284;-68
2023/10/25 07:13:39;;;;;;;17.60;5.70;;;;;;;19.75;61.03;97145.23;67918;1273;1016455;-67
2023/10/25 07:16:42;;;;;;;17.90;6.10;;;;;;;19.63;61.38;97146.75;67938;1273;1016467;-68
2023/10/25 07:19:46;;;;;;;17.70;5.10;;;;;;;19.62;61.41;97159.59;67920;1273;1018917;-67
2023/10/25 07:22:49;;;;;;;17.00;5.40;;;;;;;19.59;61.74;97151.30;67896;1273;1016380;-68
2023/10/25 07:25:51;;;;;;;13.10;4.00;;;;;;;19.43;62.21;97155.95;67836;1273;1016615;-65
2023/10/25 07:28:54;;;;;;;11.70;4.20;;;;;;;19.36;62.55;97159.16;67912;1273;1016420;-67
2023/10/25 07:31:56;;;;;;;15.10;4.60;;;;;;;19.38;62.41;97159.83;67934;1273;1016272;-67
2023/10/25 07:34:58;;;;;;;15.80;4.90;;;;;;;19.49;62.05;97159.73;67920;1273;1016909;-67
2023/10/25 07:38:02;;;;;;;13.30;4.20;;;;;;;19.40;62.16;97166.10;67889;1273;1016461;-67
2023/10/25 07:41:04;;;;;;;17.90;4.80;;;;;;;19.42;62.08;97169.77;67919;1273;1016149;-67
2023/10/25 07:44:06;;;;;;;14.40;4.40;;;;;;;19.32;62.26;97172.86;67919;1273;1018996;-68
2023/10/25 07:47:09;;;;;;;15.00;4.70;;;;;;;19.23;62.63;97173.02;67871;1273;1016446;-67
2023/10/25 07:50:17;;;;;;;15.00;4.60;;;;;;;19.27;62.53;97175.38;67916;1273;1016421;-68
2023/10/25 07:53:22;;;;;;;14.70;4.30;;;;;;;19.24;62.46;97172.62;67915;1273;1016465;-67
2023/10/25 07:56:24;;;;;;;14.60;4.50;;;;;;;19.23;62.31;97172.90;67885;1273;1016478;-68
2023/10/25 07:59:26;;;;;;;13.90;4.50;;;;;;;19.14;62.56;97175.82;67936;1273;1016412;-67
2023/10/25 08:02:29;;;;;;;14.60;4.30;;;;;;;19.19;62.30;97175.47;67901;1273;1016605;-68
2023/10/25 08:05:31;;;;;;;14.10;4.60;;;;;;;19.19;62.26;97178.64;67907;1273;1016403;-68
2023/10/25 08:08:33;;;;;;;17.00;4.80;;;;;;;19.22;62.26;97178.58;67884;1273;1016421;-66
2023/10/25 08:11:37;;;;;;;18.10;5.40;;;;;;;19.12;62.74;97186.39;67932;1273;1016476;-68
2023/10/25 08:14:39;;;;;;;19.70;5.80;;;;;;;19.06;62.59;97188.99;67869;1273;1016396;-66
2023/10/25 08:17:42;;;;;;;19.90;6.80;;;;;;;19.01;62.41;97198.16;67903;1273;1015962;-68
2023/10/25 08:20:44;;;;;;;19.60;6.40;;;;;;;18.91;62.43;97203.42;67901;1273;1016495;-66
2023/10/25 08:23:51;;;;;;;20.20;7.10;;;;;;;19.07;61.83;97203.30;67871;1273;1016058;-68
2023/10/25 08:26:55;;;;;;;20.60;7.10;;;;;;;19.17;61.47;97205.45;67892;1273;1019435;-67
2023/10/25 08:29:58;;;;;;;22.00;7.10;;;;;;;19.30;60.97;97205.39;67885;1273;1016429;-67
2023/10/25 08:33:00;;;;;;;21.70;8.00;;;;;;;19.27;60.76;97217.05;67873;1273;1016568;-67
2023/10/25 08:36:02;;;;;;;21.50;7.60;;;;;;;19.27;60.87;97217.84;67929;1273;1016525;-66
2023/10/25 08:39:05;;;;;;;21.30;8.00;;;;;;;19.28;60.91;97214.86;67905;1273;1016100;-67
2023/10/25 08:42:07;;;;;;;24.10;9.20;;;;;;;19.12;61.21;97223.42;67868;1273;1016416;-66
2023/10/25 08:45:10;;;;;;;25.60;9.00;;;;;;;19.13;61.01;97227.19;67833;1273;1016352;-67
2023/10/25 08:48:12;;;;;;;23.70;8.90;;;;;;;18.96;61.25;97240.56;67875;1273;1016449;-67
2023/10/25 08:51:14;;;;;;;24.50;8.80;;;;;;;18.83;61.57;97241.70;67929;1273;1016119;-67
2023/10/25 08:54:20;;;;;;;22.80;8.80;;;;;;;18.88;61.36;97237.96;67931;1273;1016227;-67
2023/10/25 08:57:23;;;;;;;24.30;8.90;;;;;;;18.85;61.53;97245.00;67901;1273;1016202;-66
2023/10/25 09:00:28;;;;;;;24.10;9.10;;;;;;;18.81;61.46;97252.23;67831;1273;1016432;-67
2023/10/25 09:03:31;;;;;;;23.90;8.80;;;;;;;18.73;61.69;97254.30;67899;1273;1017987;-66
2023/10/25 09:06:34;;;;;;;24.20;9.30;;;;;;;18.67;61.78;97261.16;67907;1273;1016331;-66
2023/10/25 09:09:36;;;;;;;24.30;9.90;;;;;;;18.71;61.72;97258.34;67893;1273;1016267;-66
2023/10/25 09:12:38;;;;;;;23.30;9.10;;;;;;;18.62;62.07;97258.48;67919;1273;1016320;-67
2023/10/25 09:15:41;;;;;;;26.10;9.40;;;;;;;18.68;61.84;97259.73;67938;1273;1016464;-67
2023/10/25 09:18:43;;;;;;;24.50;9.10;;;;;;;18.52;62.46;97266.77;67911;1273;1016479;-67
2023/10/25 09:21:46;;;;;;;25.10;9.80;;;;;;;18.53;62.43;97265.96;67903;1273;1016214;-61
2023/10/25 09:24:48;;;;;;;26.40;9.80;;;;;;;18.42;62.94;97270.98;67844;1273;1017552;-67
2023/10/25 09:27:50;;;;;;;25.50;10.10;;;;;;;18.62;62.22;97265.50;67909;1273;1016379;-64
2023/10/25 09:30:53;;;;;;;24.20;9.30;;;;;;;18.74;61.88;97264.77;67887;1273;1016432;-64
2023/10/25 09:33:57;;;;;;;22.90;9.00;;;;;;;18.74;61.66;97268.24;67914;1273;1016455;-67
2023/10/25 09:36:59;;;;;;;26.10;9.50;;;;;;;18.81;61.57;97268.76;67921;1273;1016405;-66
2023/10/25 09:40:02;;;;;;;26.10;10.20;;;;;;;18.70;61.79;97273.02;67920;1273;1016387;-66
2023/10/25 09:43:04;;;;;;;27.10;10.60;;;;;;;18.77;61.50;97273.40;67901;1273;1016417;-60
2023/10/25 09:46:07;;;;;;;29.10;11.60;;;;;;;18.68;61.80;97277.77;67862;1273;1016105;-68
2023/10/25 09:49:11;;;;;;;30.10;11.90;;;;;;;18.91;61.43;97268.94;67894;1273;1016226;-67
2023/10/25 09:52:13;;;;;;;32.40;11.60;;;;;;;18.97;60.91;97268.18;67924;1273;1018166;-65
2023/10/25 09:55:16;;;;;;;28.90;11.60;;;;;;;19.03;61.04;97266.40;67937;1273;1016286;-63
2023/10/25 09:58:18;;;;;;;32.70;12.80;;;;;;;19.18;60.12;97282.63;67865;1273;1019783;-62
2023/10/25 10:01:21;;;;;;;30.40;12.70;;;;;;;19.22;60.05;97278.12;67897;1273;1016254;-66
2023/10/25 10:04:23;;;;;;;28.30;11.40;;;;;;;19.28;60.02;97267.73;67904;1273;1017222;-61
2023/10/25 10:07:26;;;;;;;26.70;11.30;;;;;;;19.05;60.76;97269.08;67907;1273;1016479;-64
2023/10/25 10:10:28;;;;;;;29.20;12.00;;;;;;;19.08;60.67;97273.98;67930;1273;1015927;-66
2023/10/25 10:13:30;;;;;;;27.20;12.60;;;;;;;19.15;60.77;97267.61;67877;1273;1016420;-63
2023/10/25 10:16:33;;;;;;;27.30;11.20;;;;;;;19.26;60.36;97275.05;67883;1273;1016105;-64
2023/10/25 10:19:35;;;;;;;29.40;11.40;;;;;;;19.41;59.95;97272.99;67922;1273;1016531;-66
2023/10/25 10:22:38;;;;;;;30.20;12.60;;;;;;;19.45;59.45;97276.95;67912;1273;1016832;-63
2023/10/25 10:25:40;;;;;;;28.40;12.60;;;;;;;19.43;59.58;97272.55;67909;1273;1018831;-66
2023/10/25 10:28:42;;;;;;;28.10;12.40;;;;;;;19.36;59.66;97279.67;67895;1273;1016295;-67
2023/10/25 10:31:45;;;;;;;29.80;12.70;;;;;;;19.48;59.24;97285.16;67886;1273;1016305;-63
2023/10/25 10:34:47;;;;;;;31.40;12.60;;;;;;;19.23;59.62;97297.31;67913;1273;1016395;-67
2023/10/25 10:37:50;;;;;;;31.00;12.60;;;;;;;19.26;59.71;97296.45;67946;1273;1016253;-68
2023/10/25 10:40:52;;;;;;;28.60;12.50;;;;;;;19.58;58.76;97294.18;67935;1273;1016714;-67
2023/10/25 10:43:55;;;;;;;29.80;11.60;;;;;;;19.59;58.73;97289.05;67885;1273;1017106;-65
2023/10/25 10:46:57;;;;;;;29.20;12.00;;;;;;;19.48;58.63;97293.77;67917;1273;1016291;-64
2023/10/25 10:50:00;;;;;;;31.50;13.10;;;;;;;19.69;58.17;97297.13;67934;1273;1018225;-67
2023/10/25 10:53:02;;;;;;;32.20;14.60;;;;;;;19.68;58.01;97300.63;67960;1273;1016531;-65
2023/10/25 10:56:05;;;;;;;30.30;13.50;;;;;;;19.66;58.45;97298.33;67908;1273;1016523;-66
2023/10/25 10:59:08;;;;;;;31.40;13.40;;;;;;;19.78;58.23;97298.38;67927;1273;1016551;-65
2023/10/25 11:02:10;;;;;;;33.90;14.90;;;;;;;19.68;58.50;97301.42;67968;1273;1018665;-67
2023/10/25 11:05:14;;;;;;;33.40;15.90;;;;;;;19.47;58.88;97308.55;67891;1273;1016373;-68
2023/10/25 11:08:20;;;;;;;31.20;13.70;;;;;;;19.46;58.89;97313.12;67871;1273;1016169;-68
2023/10/25 11:11:23;;;;;;;30.70;13.10;;;;;;;19.39;59.30;97315.75;67890;1273;1016657;-66
2023/10/25 11:14:25;;;;;;;34.40;14.30;;;;;;;19.35;59.62;97314.31;67886;1273;1016500;-67
2023/10/25 11:17:28;;;;;;;31.50;14.40;;;;;;;19.37;59.28;97313.25;67869;1273;1016777;-68
2023/10/25 11:20:30;;;;;;;31.90;14.10;;;;;;;19.17;59.93;97320.02;67941;1273;1016430;-68
2023/10/25 11:23:33;;;;;;;31.20;13.80;;;;;;;19.20;59.80;97312.28;67924;1273;1016330;-67
2023/10/25 11:26:44;;;;;;;31.60;13.90;;;;;;;19.25;59.86;97319.13;67896;1273;1016204;-66
2023/10/25 11:29:48;;;;;;;32.10;14.80;;;;;;;19.36;59.75;97320.58;67902;1273;1016463;-65
2023/10/25 11:32:50;;;;;;;31.40;14.10;;;;;;;19.53;59.26;97321.41;67930;1273;1016369;-67
2023/10/25 11:35:53;;;;;;;32.80;15.30;;;;;;;19.60;59.13;97321.22;67877;1273;1016472;-67
2023/10/25 11:38:56;;;;;;;34.70;14.50;;;;;;;19.45;59.26;97324.11;67913;1273;1018523;-66
2023/10/25 11:41:58;;;;;;;31.10;14.40;;;;;;;19.36;59.60;97324.07;67910;1273;1016455;-68
2023/10/25 11:45:01;;;;;;;35.50;15.80;;;;;;;19.35;59.67;97326.01;67953;1273;1016309;-67
2023/10/25 11:48:03;;;;;;;33.00;15.20;;;;;;;19.24;60.03;97330.64;67863;1273;1016723;-68
2023/10/25 11:51:06;;;;;;;35.00;15.30;;;;;;;19.20;60.22;97332.98;67915;1273;1016302;-67
2023/10/25 11:54:08;;;;;;;33.80;15.30;;;;;;;19.22;60.37;97332.58;67918;1273;1016455;-68
2023/10/25 11:57:10;;;;;;;34.40;15.80;;;;;;;19.19;60.55;97344.36;67939;1273;1016243;-66
2023/10/25 12:00:13;;;;;;;31.50;15.20;;;;;;;19.40;59.90;97339.42;67928;1273;1015927;-68
2023/10/25 12:03:15;;;;;;;33.80;15.50;;;;;;;19.40;59.88;97342.09;67873;1273;1016125;-67
2023/10/25 12:06:18;;;;;;;;;;;;;;;19.46;59.75;97348.63;67848;1273;1016348;-65
2023/10/25 12:09:20;;;;;;;32.50;15.90;;;;;;;19.45;59.53;97352.83;67910;1273;1017229;-68
2023/10/25 12:12:23;;;;;;;30.90;13.90;;;;;;;19.48;59.46;97347.51;67937;1273;1016440;-68
2023/10/25 12:15:25;;;;;;;29.40;13.00;;;;;;;19.37;59.43;97352.14;67881;1273;1016306;-68
2023/10/25 12:18:28;;;;;;;29.00;12.20;;;;;;;19.46;59.19;97347.59;67873;1273;1016057;-67
2023/10/25 12:21:32;;;;;;;25.80;11.10;;;;;;;19.43;58.96;97357.10;67931;1273;1016391;-67
2023/10/25 12:24:34;;;;;;;26.70;11.00;;;;;;;19.59;58.77;97350.45;67911;1273;1016389;-68
2023/10/25 12:27:36;;;;;;;26.90;12.20;;;;;;;19.57;58.70;97356.16;67922;1273;1016454;-67
2023/10/25 12:30:39;;;;;;;26.70;10.90;;;;;;;19.49;58.96;97356.54;67923;1273;1016403;-67
2023/10/25 12:33:41;;;;;;;27.70;10.40;;;;;;;19.64;58.63;97358.50;67902;1273;1016405;-67
2023/10/25 12:36:44;;;;;;;25.20;10.50;;;;;;;19.39;59.40;97364.20;67884;1273;1016016;-67
2023/10/25 12:39:46;;;;;;;26.10;10.40;;;;;;;19.38;59.66;97362.31;67911;1273;1016411;-65
2023/10/25 12:42:48;;;;;;;25.30;9.20;;;;;;;19.31;60.01;97372.41;67927;1273;1016486;-67
2023/10/25 12:45:51;;;;;;;25.10;9.70;;;;;;;19.23;60.18;97377.48;67918;1273;1016386;-67
2023/10/25 12:48:53;;;;;;;23.30;8.70;;;;;;;19.28;60.14;97377.69;67894;1273;1016393;-67
2023/10/25 12:51:56;;;;;;;23.90;9.10;;;;;;;19.35;59.94;97373.85;67893;1273;1016466;-68
2023/10/25 12:55:00;;;;;;;24.30;9.20;;;;;;;19.42;59.60;97370.02;67906;1257;1019878;-67
2023/10/25 12:58:04;;;;;;;22.10;8.10;;;;;;;19.42;59.53;97376.06;67872;1273;1015739;-67
2023/10/25 13:01:06;;;;;;;23.70;7.90;;;;;;;19.30;59.72;97377.99;67890;1273;1018916;-65
2023/10/25 13:04:09;;;;;;;22.20;8.40;;;;;;;19.30;59.83;97372.02;67889;1273;1018224;-67
2023/10/25 13:07:11;;;;;;;21.70;8.20;;;;;;;19.26;60.00;97372.83;67910;1273;1015946;-67
2023/10/25 13:10:14;;;;;;;22.30;7.60;;;;;;;19.26;60.12;97374.22;67927;1273;1016301;-68
2023/10/25 13:13:17;;;;;;;21.90;7.60;;;;;;;19.22;60.41;97373.69;67953;1273;1016459;-65
2023/10/25 13:16:20;;;;;;;;;;;;;;;19.17;60.75;97382.57;67727;1273;1016490;-67
2023/10/25 13:19:23;;;;;;;22.30;8.50;;;;;;;19.17;60.88;97377.09;67925;1273;1016275;-67
2023/10/25 13:22:26;;;;;;;22.50;7.10;;;;;;;19.18;60.79;97375.71;67898;1273;1016457;-68
2023/10/25 13:25:29;;;;;;;25.30;7.70;;;;;;;19.17;61.00;97374.77;67895;1273;1016373;-66
2023/10/25 13:28:32;;;;;;;22.90;7.90;;;;;;;19.14;61.19;97369.48;67876;1273;1016458;-67
2023/10/25 13:31:35;;;;;;;23.20;8.10;;;;;;;19.08;61.38;97375.70;67884;1273;1016398;-65
2023/10/25 13:34:37;;;;;;;22.50;7.70;;;;;;;19.04;61.67;97373.23;67923;1251;1016447;-68
2023/10/25 13:37:40;;;;;;;24.50;8.00;;;;;;;19.18;61.23;97372.52;67926;1273;1016411;-66
2023/10/25 13:40:44;;;;;;;;;;;;;;;19.28;60.94;97376.42;67878;1273;1016388;-67
2023/10/25 13:43:47;;;;;;;22.60;8.60;;;;;;;19.21;61.46;97378.58;67888;1273;1018145;-63
2023/10/25 13:46:49;;;;;;;24.50;8.70;;;;;;;19.21;61.27;97376.74;67951;1273;1016703;-68
2023/10/25 13:49:52;;;;;;;22.90;8.50;;;;;;;19.51;60.25;97378.04;67918;1273;1016409;-67